ADDS METAR Data INFO
IDs: Format: Raw Decoded Include TAF

Data at: 0257 UTC 22 Apr 2018

KAUS 220253Z 00000KT 1/4SM R17L/0800V1400FT FG VV002 19/19 A2989 RMK AO2 SLP118 T01940194 53008 $
KAUS 220241Z 16003KT 1/4SM R17L/2200V2600FT FG BKN002 20/20 A2989 RMK AO2 SFC VIS 1/2 T02000200 $
KAUS 220153Z 00000KT 1/2SM R17L/3000VP6000FT BR VV003 18/18 A2988 RMK AO2 SFC VIS 1 SLP116 T01830183 $
KAUS 220150Z 00000KT 1/2SM R17L/3000VP6000FT BR BKN003 18/18 A2988 RMK AO2 SFC VIS 2 $
KAUS 220053Z 09003KT 8SM SCT008 BKN120 BKN200 21/21 A2987 RMK AO2 SLP108 T02060206 $
KAUS 212353Z 08004KT 8SM BKN008 BKN050 BKN120 22/21 A2987 RMK AO2 LTG DSNT E RAE17 SLP111 OCNL LTG DSNT SE P0000 60024 T02170206 10217 20189 56012 $
KAUS 212325Z 07004KT 5SM BR SCT006 SCT045 BKN120 22/21 A2988 RMK AO2 LTG DSNT SE RAE17 OCNL LTG DSNT SE P0000 T02170206 $
KAUS 212253Z 02005KT 4SM -RA BR BKN010 BKN045 22/21 A2988 RMK AO2 LTG DSNT E AND SE SLP112 OCNL LTG DSNT E AND SE P0004 T02170206 $
KAUS 212208Z 00000KT 3SM R17L/6000VP6000FT -RA BR SCT008 BKN012 OVC017 21/20 A2989 RMK AO2 OCNL LTG DSNT SE P0003 T02060200 $
KAUS 212153Z 00000KT 2SM R17L/3500V6000FT RA BR BKN010 BKN014 OVC019 21/20 A2989 RMK AO2 SLP118 P0020 T02060200 $
KAUS 212117Z 00000KT 2 1/2SM R17L/5000VP6000FT -RA BR OVC011 21/19 A2990 RMK AO2 P0005 T02060194 $
KAUS 212053Z 35004KT 8SM -RA OVC011 21/19 A2991 RMK AO2 RAB48 SLP122 P0000 60000 T02110189 58018 $
KAUS 212017Z 19004KT 10SM OVC011 21/19 A2992 RMK AO2 T02110194 $
KAUS 211953Z 00000KT 9SM OVC009 21/19 A2993 RMK AO2 CIG 008V013 SLP129 T02110189 $
KAUS 211853Z 18004KT 8SM OVC007 19/18 A2995 RMK AO2 RAE1757 SLP137 P0000 T01940178 $
KAUS 211753Z 15006KT 7SM -RA BKN007 OVC023 19/18 A2996 RMK AO2 RAB1655 SLP142 P0000 60000 T01890178 10189 20150 58008 $
KAUS 211742Z 15011KT 5SM -RA BR BKN007 BKN031 OVC080 18/18 A2996 RMK AO2 RAB1655 P0000 T01830178 $
KAUS 211723Z 13013KT 5SM -RA BR SCT007 BKN037 OVC043 18/17 A2996 RMK AO2 RAB1655 CIG 007 RWY17R P0000 T01830172 $
KAUS 211653Z 13008KT 4SM BR OVC007 18/17 A2999 RMK AO2 SLP151 T01780167 $
KAUS 211553Z 10007KT 6SM BR OVC007 18/16 A3000 RMK AO2 SLP156 T01780161 $
KAUS 211453Z AUTO 11005KT 6SM BR OVC007 17/16 A2998 RMK AO2 SLP150 T01720156 58005
KAUS 211353Z AUTO 08005KT 6SM BR OVC007 16/14 A3000 RMK AO2 SLP155 T01610144
KAUS 211253Z VRB06KT 7SM OVC009 15/14 A3000 RMK AO2 SLP157 T01500139
KAUS 211153Z 05005KT 9SM OVC009 16/14 A3000 RMK AO2 RAE48 SLP155 P0000 60000 T01560144 10156 20150 51014
KAUS 211113Z 06006KT 7SM -RA OVC009 16/14 A3000 RMK AO2 P0000 T01560144
KAUS 211053Z 04005KT 10SM -RA OVC011 16/14 A2999 RMK AO2 RAB17 SLP154 P0000 T01560144
KAUS 210953Z 01004KT 10SM OVC011 16/13 A3000 RMK AO2 SLP154 T01560133
KAUS 210853Z 11006KT 10SM OVC013 15/13 A2996 RMK AO2 SLP141 T01500128 58020
KAUS 210812Z 11007KT 10SM OVC013 15/12 A2997 RMK AO2 T01500122
KAUS 210753Z 12006KT 10SM OVC015 15/12 A2998 RMK AO2 SLP149 T01500122
KAUS 210701Z 12009KT 10SM BKN016 OVC037 15/12 A3001 RMK AO2 T01500117
KAUS 210653Z 12009KT 10SM SCT020 OVC036 15/12 A3000 RMK AO2 SLP157 T01500117
KAUS 210553Z 11010KT 10SM OVC020 16/11 A3002 RMK AO2 SLP162 T01560111 10183 20144 402060089 58020
KAUS 210453Z 13011KT 10SM BKN029 OVC041 16/10 A3006 RMK AO2 SLP176 T01560100
KAUS 210353Z 11005KT 10SM BKN049 14/09 A3007 RMK AO2 SLP179 T01440089
KAUS 210253Z 11006KT 10SM FEW040 BKN049 16/08 A3008 RMK AO2 SLP183 T01610083 53001
KAUS 210153Z 10008KT 10SM OVC043 17/08 A3006 RMK AO2 SLP178 T01670083
KAUS 210053Z 10006KT 10SM BKN047 BKN100 BKN200 17/09 A3006 RMK AO2 SLP177 T01720089
KAUS 202353Z 13011KT 10SM SCT060 SCT120 BKN200 18/09 A3008 RMK AO2 SLP183 T01830089 10206 20183 55015
KAUS 202253Z 12010KT 10SM FEW060 BKN100 BKN200 19/09 A3008 RMK AO2 SLP182 T01890089
KAUS 202153Z 12011KT 10SM SCT055 BKN100 BKN200 19/09 A3009 RMK AO2 SLP188 T01890089
KAUS 202053Z 15008KT 10SM BKN055 OVC100 19/09 A3012 RMK AO2 SLP198 T01940089 58021
KAUS 201953Z VRB04G15KT 10SM SCT100 BKN200 19/09 A3016 RMK AO2 SLP210 T01940089
KAUS 201853Z 11010KT 10SM FEW050 FEW100 SCT200 BKN300 19/09 A3016 RMK AO2 SLP212 T01940089
KAUS 201753Z 12012KT 10SM FEW100 SCT200 BKN300 19/08 A3019 RMK AO2 SLP220 T01890083 10189 20111 58020
KAUS 201653Z 13011KT 10SM FEW100 SCT200 BKN300 16/07 A3024 RMK AO2 SLP239 T01610072
KAUS 201553Z 10008KT 10SM FEW095 SCT200 BKN300 16/07 A3026 RMK AO2 SLP243 T01560072